createdAt,value
2018-08-30T00:00:08.888Z,982.13
2018-08-30T00:01:09.079Z,982.10
2018-08-30T00:02:09.268Z,982.07
2018-08-30T00:03:09.480Z,982.04
2018-08-30T00:04:09.676Z,982.05
2018-08-30T00:05:09.867Z,982.04
2018-08-30T00:06:10.063Z,982.03
2018-08-30T00:07:10.254Z,982.03
2018-08-30T00:08:10.444Z,982.01
2018-08-30T00:09:10.637Z,982.01
2018-08-30T00:10:10.825Z,982.00
2018-08-30T00:11:11.020Z,982.00
2018-08-30T00:12:11.212Z,981.97
2018-08-30T00:13:11.402Z,982.00
2018-08-30T00:14:11.595Z,982.00
2018-08-30T00:15:11.785Z,982.03
2018-08-30T00:16:11.982Z,982.01
2018-08-30T00:17:12.175Z,982.01
2018-08-30T00:18:12.365Z,982.07
2018-08-30T00:19:12.560Z,982.12
2018-08-30T00:20:12.750Z,982.10
2018-08-30T00:21:12.940Z,982.11
2018-08-30T00:22:13.131Z,982.14
2018-08-30T00:23:13.324Z,982.16
2018-08-30T00:24:13.519Z,982.15
2018-08-30T00:25:13.712Z,982.15
2018-08-30T00:26:13.905Z,982.14
2018-08-30T00:27:14.102Z,982.18
2018-08-30T00:28:14.300Z,982.17
2018-08-30T00:29:14.492Z,982.18
2018-08-30T00:30:14.684Z,982.16
2018-08-30T00:31:14.878Z,982.16
2018-08-30T00:32:15.073Z,982.20
2018-08-30T00:33:15.257Z,982.23
2018-08-30T00:34:15.452Z,982.20
2018-08-30T00:35:15.648Z,982.19
2018-08-30T00:36:15.851Z,982.18
2018-08-30T00:37:16.050Z,982.18
2018-08-30T00:38:16.251Z,982.19
2018-08-30T00:39:16.441Z,982.18
2018-08-30T00:40:16.633Z,982.26
2018-08-30T00:41:16.865Z,982.22
2018-08-30T00:42:17.025Z,982.25
2018-08-30T00:43:17.215Z,982.26
2018-08-30T00:44:17.407Z,982.23
2018-08-30T00:45:17.604Z,982.25
2018-08-30T00:46:17.796Z,982.26
2018-08-30T00:47:17.993Z,982.28
2018-08-30T00:48:18.195Z,982.33
2018-08-30T00:49:18.385Z,982.32
2018-08-30T00:50:18.585Z,982.38
2018-08-30T00:51:18.780Z,982.38
2018-08-30T00:52:18.967Z,982.37
2018-08-30T00:53:19.162Z,982.38
2018-08-30T00:54:19.362Z,982.40
2018-08-30T00:55:19.556Z,982.38
2018-08-30T00:56:19.761Z,982.40
2018-08-30T00:57:19.950Z,982.39
2018-08-30T00:58:20.143Z,982.37
2018-08-30T00:59:20.332Z,982.41
2018-08-30T01:00:20.527Z,982.44
2018-08-30T01:01:20.726Z,982.46
2018-08-30T01:02:20.914Z,982.44
2018-08-30T01:03:21.111Z,982.46
2018-08-30T01:04:21.298Z,982.47
2018-08-30T01:05:21.493Z,982.43
2018-08-30T01:06:21.685Z,982.42
2018-08-30T01:07:21.876Z,982.46
2018-08-30T01:08:22.068Z,982.44
2018-08-30T01:09:22.261Z,982.47
2018-08-30T01:10:22.455Z,982.43
2018-08-30T01:11:22.649Z,982.44
2018-08-30T01:12:22.841Z,982.45
2018-08-30T01:13:23.032Z,982.45
2018-08-30T01:14:23.222Z,982.47
2018-08-30T01:15:23.415Z,982.42
2018-08-30T01:16:23.613Z,982.46
2018-08-30T01:17:23.801Z,982.48
2018-08-30T01:18:23.992Z,982.47
2018-08-30T01:19:24.187Z,982.50
2018-08-30T01:20:24.377Z,982.46
2018-08-30T01:21:24.569Z,982.47
2018-08-30T01:22:24.763Z,982.45
2018-08-30T01:23:24.956Z,982.47
2018-08-30T01:24:25.152Z,982.48
2018-08-30T01:25:25.353Z,982.48
2018-08-30T01:26:25.545Z,982.47
2018-08-30T01:27:25.740Z,982.46
2018-08-30T01:28:25.929Z,982.48
2018-08-30T01:29:26.123Z,982.51
2018-08-30T01:30:26.317Z,982.48
2018-08-30T01:31:26.511Z,982.50
2018-08-30T01:32:26.705Z,982.50
2018-08-30T01:33:26.896Z,982.54
2018-08-30T01:34:27.094Z,982.52
2018-08-30T01:35:27.283Z,982.52
2018-08-30T01:36:27.487Z,982.51
2018-08-30T01:37:27.679Z,982.49
2018-08-30T01:38:27.871Z,982.45
2018-08-30T01:39:28.064Z,982.46
2018-08-30T01:40:28.253Z,982.45
2018-08-30T01:41:28.449Z,982.49
2018-08-30T01:42:28.639Z,982.47
2018-08-30T01:43:28.839Z,982.48
2018-08-30T01:44:29.042Z,982.48
2018-08-30T01:45:29.233Z,982.52
2018-08-30T01:46:29.428Z,982.54
2018-08-30T01:47:29.626Z,982.53
2018-08-30T01:48:29.839Z,982.54
2018-08-30T01:49:30.030Z,982.52
2018-08-30T01:50:30.221Z,982.53
2018-08-30T01:51:30.419Z,982.55
2018-08-30T01:52:30.607Z,982.56
2018-08-30T01:53:30.799Z,982.55
2018-08-30T01:54:30.987Z,982.54
2018-08-30T01:55:31.183Z,982.58
2018-08-30T01:56:31.372Z,982.59
2018-08-30T01:57:31.568Z,982.61
2018-08-30T01:58:31.759Z,982.62
2018-08-30T01:59:31.953Z,982.65
2018-08-30T02:00:32.153Z,982.68
2018-08-30T02:01:32.345Z,982.71
2018-08-30T02:02:32.536Z,982.70
2018-08-30T02:03:32.729Z,982.70
2018-08-30T02:04:32.921Z,982.67
2018-08-30T02:05:33.113Z,982.67
2018-08-30T02:06:33.307Z,982.70
2018-08-30T02:07:33.497Z,982.65
2018-08-30T02:08:33.692Z,982.70
2018-08-30T02:09:33.883Z,982.67
2018-08-30T02:10:34.073Z,982.66
2018-08-30T02:11:34.266Z,982.73
2018-08-30T02:12:34.462Z,982.73
2018-08-30T02:13:34.658Z,982.77
2018-08-30T02:14:34.851Z,982.79
2018-08-30T02:15:35.041Z,982.74
2018-08-30T02:16:35.230Z,982.82
2018-08-30T02:17:35.442Z,982.79
2018-08-30T02:18:35.619Z,982.77
2018-08-30T02:19:35.814Z,982.82
2018-08-30T02:20:36.005Z,982.79
2018-08-30T02:21:36.195Z,982.82
2018-08-30T02:22:36.386Z,982.84
2018-08-30T02:23:36.580Z,982.90
2018-08-30T02:24:36.777Z,982.87
2018-08-30T02:25:36.969Z,982.85
2018-08-30T02:26:37.158Z,982.90
2018-08-30T02:27:37.408Z,982.95
2018-08-30T02:28:37.541Z,982.92
2018-08-30T02:29:37.733Z,982.92
2018-08-30T02:30:37.930Z,982.91
2018-08-30T02:31:38.124Z,982.90
2018-08-30T02:32:38.316Z,982.93
2018-08-30T02:33:38.508Z,982.91
2018-08-30T02:34:38.700Z,982.89
2018-08-30T02:35:38.897Z,982.89
2018-08-30T02:36:39.093Z,982.95
2018-08-30T02:37:39.286Z,982.91
2018-08-30T02:38:39.475Z,982.93
2018-08-30T02:39:39.664Z,982.93
2018-08-30T02:40:39.858Z,982.93
2018-08-30T02:41:40.049Z,982.94
2018-08-30T02:42:40.240Z,982.92
2018-08-30T02:43:40.440Z,982.90
2018-08-30T02:44:40.637Z,982.85
2018-08-30T02:45:40.823Z,982.89
2018-08-30T02:46:41.021Z,982.90
2018-08-30T02:47:41.214Z,982.90
2018-08-30T02:48:41.405Z,982.88
2018-08-30T02:49:41.594Z,982.91
2018-08-30T02:50:41.784Z,982.91
2018-08-30T02:51:41.979Z,982.91
2018-08-30T02:52:42.173Z,982.89
2018-08-30T02:53:42.365Z,982.89
2018-08-30T02:54:42.554Z,982.88
2018-08-30T02:55:42.751Z,982.91
2018-08-30T02:56:42.939Z,982.95
2018-08-30T02:57:43.129Z,982.96
2018-08-30T02:58:43.320Z,982.95
2018-08-30T02:59:43.512Z,982.98
2018-08-30T03:00:43.703Z,982.95
2018-08-30T03:01:43.895Z,982.96
2018-08-30T03:02:44.089Z,982.95
2018-08-30T03:03:44.279Z,982.95
2018-08-30T03:04:44.472Z,982.97
2018-08-30T03:05:44.676Z,983.00
2018-08-30T03:06:44.870Z,982.97
2018-08-30T03:07:45.061Z,983.01
2018-08-30T03:08:45.252Z,983.01
2018-08-30T03:09:45.452Z,983.02
2018-08-30T03:10:45.637Z,983.04
2018-08-30T03:11:45.824Z,983.04
2018-08-30T03:12:46.017Z,983.02
2018-08-30T03:13:46.210Z,983.09
2018-08-30T03:14:46.395Z,983.04
2018-08-30T03:15:46.590Z,983.10
2018-08-30T03:16:46.774Z,983.04
2018-08-30T03:17:46.967Z,983.11
2018-08-30T03:18:47.154Z,983.11
2018-08-30T03:19:47.354Z,982.99
2018-08-30T03:20:47.547Z,983.03
2018-08-30T03:21:47.739Z,983.02
2018-08-30T03:22:47.932Z,983.03
2018-08-30T03:23:48.120Z,983.05
2018-08-30T03:24:48.315Z,983.09
2018-08-30T03:25:48.510Z,983.12
2018-08-30T03:26:48.699Z,983.09
2018-08-30T03:27:48.892Z,983.09
2018-08-30T03:28:49.093Z,983.15
2018-08-30T03:29:49.277Z,983.15
2018-08-30T03:30:49.511Z,983.12
2018-08-30T03:31:49.663Z,983.16
2018-08-30T03:32:49.849Z,983.14
2018-08-30T03:33:50.053Z,983.18
2018-08-30T03:34:50.241Z,983.16
2018-08-30T03:35:50.433Z,983.16
2018-08-30T03:36:50.624Z,983.14
2018-08-30T03:37:50.817Z,983.15
2018-08-30T03:38:51.013Z,983.11
2018-08-30T03:39:51.200Z,983.08
2018-08-30T03:40:51.395Z,983.07
2018-08-30T03:41:51.590Z,983.07
2018-08-30T03:42:51.776Z,983.07
2018-08-30T03:43:51.970Z,983.03
2018-08-30T03:44:52.166Z,983.07
2018-08-30T03:45:52.355Z,983.08
2018-08-30T03:46:52.592Z,983.12
2018-08-30T03:47:52.738Z,983.08
2018-08-30T03:48:52.933Z,983.12
2018-08-30T03:49:53.119Z,983.12
2018-08-30T03:50:53.314Z,983.13
2018-08-30T03:51:53.502Z,983.15
2018-08-30T03:52:53.692Z,983.12
2018-08-30T03:53:53.885Z,983.16
2018-08-30T03:54:54.075Z,983.17
2018-08-30T03:55:54.268Z,983.13
2018-08-30T03:56:54.459Z,983.13
2018-08-30T03:57:54.651Z,983.16
2018-08-30T03:58:54.844Z,983.18
2018-08-30T03:59:55.035Z,983.20
2018-08-30T04:00:55.229Z,983.16
2018-08-30T04:01:55.418Z,983.20
2018-08-30T04:02:55.617Z,983.25
2018-08-30T04:03:55.812Z,983.23
2018-08-30T04:04:56.006Z,983.24
2018-08-30T04:05:56.190Z,983.24
2018-08-30T04:06:56.387Z,983.26
2018-08-30T04:07:56.589Z,983.26
2018-08-30T04:08:56.765Z,983.26
2018-08-30T04:09:56.974Z,983.26
2018-08-30T04:10:57.151Z,983.21
2018-08-30T04:11:57.344Z,983.24
2018-08-30T04:12:57.542Z,983.25
2018-08-30T04:13:57.747Z,983.25
2018-08-30T04:14:57.952Z,983.26
2018-08-30T04:15:58.165Z,983.27
2018-08-30T04:16:58.377Z,983.33
2018-08-30T04:17:58.605Z,983.30
2018-08-30T04:18:58.771Z,983.31
2018-08-30T04:19:58.963Z,983.30
2018-08-30T04:20:59.157Z,983.32
2018-08-30T04:21:59.385Z,983.34
2018-08-30T04:22:59.537Z,983.37
2018-08-30T04:23:59.728Z,983.37
2018-08-30T04:24:59.925Z,983.39
2018-08-30T04:26:00.122Z,983.41
2018-08-30T04:27:00.343Z,983.44
2018-08-30T04:28:00.503Z,983.40
2018-08-30T04:29:00.715Z,983.44
2018-08-30T04:30:00.903Z,983.43
2018-08-30T04:31:01.096Z,983.47
2018-08-30T04:32:01.288Z,983.48
2018-08-30T04:33:01.480Z,983.53
2018-08-30T04:34:01.669Z,983.54
2018-08-30T04:35:01.866Z,983.59
2018-08-30T04:36:02.052Z,983.59
2018-08-30T04:37:02.247Z,983.59
2018-08-30T04:38:02.440Z,983.60
2018-08-30T04:39:02.653Z,983.64
2018-08-30T04:40:02.842Z,983.62
2018-08-30T04:41:03.032Z,983.68
2018-08-30T04:42:03.226Z,983.64
2018-08-30T04:43:03.419Z,983.62
2018-08-30T04:44:03.609Z,983.67
2018-08-30T04:45:03.802Z,983.72
2018-08-30T04:46:03.994Z,983.70
2018-08-30T04:47:04.182Z,983.74
2018-08-30T04:48:04.380Z,983.73
2018-08-30T04:49:04.563Z,983.72
2018-08-30T04:50:04.820Z,983.75
2018-08-30T04:51:04.959Z,983.72
2018-08-30T04:52:05.147Z,983.76
2018-08-30T04:53:05.339Z,983.76
2018-08-30T04:54:05.526Z,983.82
2018-08-30T04:55:05.720Z,983.79
2018-08-30T04:56:05.914Z,983.88
2018-08-30T04:57:06.104Z,983.80
2018-08-30T04:58:06.299Z,983.88
2018-08-30T04:59:06.493Z,983.89
2018-08-30T05:00:06.683Z,983.94
2018-08-30T05:01:06.873Z,984.02
2018-08-30T05:02:07.074Z,983.99
2018-08-30T05:03:07.263Z,984.04
2018-08-30T05:04:07.465Z,984.10
2018-08-30T05:05:07.658Z,984.07
2018-08-30T05:06:07.845Z,984.08
2018-08-30T05:07:08.037Z,984.12
2018-08-30T05:08:08.229Z,984.16
2018-08-30T05:09:08.416Z,984.20
2018-08-30T05:10:08.687Z,984.22
2018-08-30T05:11:08.801Z,984.28
2018-08-30T05:12:08.988Z,984.28
2018-08-30T05:13:09.187Z,984.32
2018-08-30T05:14:09.374Z,984.31
2018-08-30T05:15:09.575Z,984.38
2018-08-30T05:16:09.778Z,984.38
2018-08-30T05:17:09.959Z,984.44
2018-08-30T05:18:10.164Z,984.41
2018-08-30T05:19:11.322Z,984.45
2018-08-30T05:20:10.540Z,984.46
2018-08-30T05:21:10.737Z,984.44
2018-08-30T05:22:10.927Z,984.46
2018-08-30T05:23:11.196Z,984.49
2018-08-30T05:24:11.321Z,984.45
2018-08-30T05:25:11.517Z,984.50
2018-08-30T05:26:11.712Z,984.48
2018-08-30T05:27:11.920Z,984.51
2018-08-30T05:28:12.119Z,984.51
2018-08-30T05:29:12.314Z,984.53
2018-08-30T05:30:12.501Z,984.54
2018-08-30T05:31:12.697Z,984.53
2018-08-30T05:32:12.891Z,984.61
2018-08-30T05:33:13.079Z,984.57
2018-08-30T05:34:13.271Z,984.59
2018-08-30T05:35:13.465Z,984.60
2018-08-30T05:36:13.653Z,984.62
2018-08-30T05:37:13.845Z,984.68
2018-08-30T05:38:14.036Z,984.68
2018-08-30T05:39:14.249Z,984.71
2018-08-30T05:40:14.443Z,984.67
2018-08-30T05:41:14.638Z,984.69
2018-08-30T05:42:14.831Z,984.75
2018-08-30T05:43:15.025Z,984.74
2018-08-30T05:44:15.213Z,984.76
2018-08-30T05:45:15.405Z,984.77
2018-08-30T05:46:15.607Z,984.80
2018-08-30T05:47:15.802Z,984.79
2018-08-30T05:48:15.989Z,984.78
2018-08-30T05:49:16.178Z,984.84
2018-08-30T05:50:16.369Z,984.77
2018-08-30T05:51:16.555Z,984.82
2018-08-30T05:52:16.746Z,984.80
2018-08-30T05:53:16.941Z,984.81
2018-08-30T05:54:17.180Z,984.85
2018-08-30T05:55:17.320Z,984.82
2018-08-30T05:56:17.509Z,984.89
2018-08-30T05:57:17.709Z,984.89
2018-08-30T05:58:17.889Z,984.94
2018-08-30T05:59:18.082Z,984.92
2018-08-30T06:00:18.264Z,984.96
2018-08-30T06:01:18.458Z,984.93
2018-08-30T06:02:18.657Z,984.95
2018-08-30T06:03:18.846Z,984.97
2018-08-30T06:04:19.042Z,984.95
2018-08-30T06:05:19.235Z,984.92
2018-08-30T06:06:19.427Z,985.02
2018-08-30T06:07:19.709Z,985.03
2018-08-30T06:08:19.829Z,985.02
2018-08-30T06:09:20.005Z,985.06
2018-08-30T06:10:20.200Z,985.12
2018-08-30T06:11:20.386Z,985.11
2018-08-30T06:12:20.578Z,985.11
2018-08-30T06:13:20.766Z,985.11
2018-08-30T06:14:20.959Z,985.18
2018-08-30T06:15:21.152Z,985.19
2018-08-30T06:16:21.348Z,985.29
2018-08-30T06:17:21.539Z,985.26
2018-08-30T06:18:21.732Z,985.24
2018-08-30T06:19:21.929Z,985.23
2018-08-30T06:20:22.126Z,985.30
2018-08-30T06:21:22.309Z,985.24
2018-08-30T06:22:22.497Z,985.29
2018-08-30T06:23:22.689Z,985.28
2018-08-30T06:24:22.887Z,985.24
2018-08-30T06:25:23.086Z,985.28
2018-08-30T06:26:23.277Z,985.30
2018-08-30T06:27:23.474Z,985.26
2018-08-30T06:28:23.664Z,985.28
2018-08-30T06:29:23.922Z,985.30
2018-08-30T06:30:24.047Z,985.31
2018-08-30T06:31:24.235Z,985.31
2018-08-30T06:32:24.435Z,985.25
2018-08-30T06:33:24.626Z,985.29
2018-08-30T06:34:24.820Z,985.28
2018-08-30T06:35:25.012Z,985.35
2018-08-30T06:36:25.224Z,985.34
2018-08-30T06:37:25.400Z,985.34
2018-08-30T06:38:25.580Z,985.35
2018-08-30T06:39:25.770Z,985.38
2018-08-30T06:40:25.965Z,985.46
2018-08-30T06:41:26.164Z,985.45
2018-08-30T06:42:26.349Z,985.41
2018-08-30T06:43:26.554Z,985.40
2018-08-30T06:44:26.743Z,985.49
2018-08-30T06:45:26.953Z,985.50
2018-08-30T06:46:27.136Z,985.57
2018-08-30T06:47:27.323Z,985.58
2018-08-30T06:48:27.543Z,985.58
2018-08-30T06:49:27.708Z,985.64
2018-08-30T06:50:27.896Z,985.69
2018-08-30T06:51:28.094Z,985.68
2018-08-30T06:52:28.284Z,985.67
2018-08-30T06:53:28.483Z,985.67
2018-08-30T06:54:28.669Z,985.72
2018-08-30T06:55:28.864Z,985.74
2018-08-30T06:56:29.099Z,985.72
2018-08-30T06:57:29.249Z,985.75
2018-08-30T06:58:29.474Z,985.78
2018-08-30T06:59:29.636Z,985.71
2018-08-30T07:00:29.828Z,985.81
2018-08-30T07:01:30.022Z,985.70
2018-08-30T07:02:30.210Z,985.76
2018-08-30T07:03:30.407Z,985.76
2018-08-30T07:04:30.591Z,985.78
2018-08-30T07:05:30.811Z,985.85
2018-08-30T07:06:30.977Z,985.86
2018-08-30T07:07:31.165Z,985.84
2018-08-30T07:08:31.359Z,985.82
2018-08-30T07:09:31.548Z,985.85
2018-08-30T07:10:31.742Z,985.87
2018-08-30T07:11:31.925Z,985.90
2018-08-30T07:12:32.112Z,985.90
2018-08-30T07:13:32.291Z,985.79
2018-08-30T07:14:32.527Z,985.88
2018-08-30T07:15:32.690Z,985.89
2018-08-30T07:16:32.881Z,985.90
2018-08-30T07:17:33.077Z,985.92
2018-08-30T07:18:33.262Z,985.93
2018-08-30T07:19:33.460Z,985.99
2018-08-30T07:20:33.645Z,985.98
2018-08-30T07:21:33.847Z,986.02
2018-08-30T07:22:34.044Z,986.06
2018-08-30T07:23:34.240Z,986.03
2018-08-30T07:24:34.448Z,986.03
2018-08-30T07:25:34.642Z,986.04
2018-08-30T07:26:34.834Z,985.99
2018-08-30T07:27:35.024Z,986.03
2018-08-30T07:28:35.252Z,986.09
2018-08-30T07:29:35.407Z,986.12
2018-08-30T07:30:35.597Z,986.13
2018-08-30T07:31:35.789Z,986.22
2018-08-30T07:32:35.989Z,986.19
2018-08-30T07:33:36.181Z,986.24
2018-08-30T07:34:36.436Z,986.24
2018-08-30T07:35:36.562Z,986.23
2018-08-30T07:36:36.764Z,986.28
2018-08-30T07:37:36.937Z,986.28
2018-08-30T07:38:37.126Z,986.33
2018-08-30T07:39:37.315Z,986.31
2018-08-30T07:40:37.508Z,986.34
2018-08-30T07:41:37.699Z,986.36
2018-08-30T07:42:37.893Z,986.37
2018-08-30T07:43:38.087Z,986.39
2018-08-30T07:44:38.297Z,986.42
2018-08-30T07:45:38.459Z,986.38
2018-08-30T07:46:38.651Z,986.43
2018-08-30T07:47:38.837Z,986.44
2018-08-30T07:48:39.050Z,986.46
2018-08-30T07:49:39.236Z,986.42
2018-08-30T07:50:39.431Z,986.45
2018-08-30T07:51:39.613Z,986.49
2018-08-30T07:52:39.809Z,986.44
2018-08-30T07:53:40.003Z,986.52
2018-08-30T07:54:40.229Z,986.48
2018-08-30T07:55:40.399Z,986.54
2018-08-30T07:56:40.594Z,986.58
2018-08-30T07:57:40.783Z,986.53
2018-08-30T07:58:40.973Z,986.54
2018-08-30T07:59:41.166Z,986.53
2018-08-30T08:00:41.359Z,986.63
2018-08-30T08:01:41.549Z,986.56
2018-08-30T08:02:41.745Z,986.62
2018-08-30T08:03:41.934Z,986.63
2018-08-30T08:04:42.124Z,986.61
2018-08-30T08:05:42.315Z,986.68
2018-08-30T08:06:42.504Z,986.68
2018-08-30T08:07:42.700Z,986.70
2018-08-30T08:08:42.890Z,986.70
2018-08-30T08:09:43.072Z,986.74
2018-08-30T08:10:43.272Z,986.75
2018-08-30T08:11:43.464Z,986.75
2018-08-30T08:12:43.723Z,986.76
2018-08-30T08:13:43.848Z,986.80
2018-08-30T08:14:44.040Z,986.86
2018-08-30T08:15:44.235Z,986.90
2018-08-30T08:16:44.425Z,986.90
2018-08-30T08:17:44.630Z,986.89
2018-08-30T08:18:44.816Z,986.92
2018-08-30T08:19:45.006Z,986.96
2018-08-30T08:20:45.198Z,986.89
2018-08-30T08:21:45.376Z,987.02
2018-08-30T08:22:45.591Z,986.97
2018-08-30T08:23:45.787Z,986.98
2018-08-30T08:24:46.018Z,987.00
2018-08-30T08:25:46.160Z,987.01
2018-08-30T08:26:46.351Z,987.06
2018-08-30T08:27:46.550Z,987.05
2018-08-30T08:28:46.748Z,987.06
2018-08-30T08:29:46.937Z,987.08
2018-08-30T08:30:47.138Z,987.01
2018-08-30T08:31:47.323Z,987.03
2018-08-30T08:32:47.513Z,987.02
2018-08-30T08:33:47.713Z,987.07
2018-08-30T08:34:47.909Z,987.09
2018-08-30T08:35:48.107Z,987.11
2018-08-30T08:36:48.303Z,987.10
2018-08-30T08:37:48.494Z,987.14
2018-08-30T08:38:48.687Z,987.11
2018-08-30T08:39:48.876Z,987.14
2018-08-30T08:40:49.069Z,987.17
2018-08-30T08:41:49.259Z,987.16
2018-08-30T08:42:49.456Z,987.22
2018-08-30T08:43:49.646Z,987.18
2018-08-30T08:44:49.837Z,987.23
2018-08-30T08:45:50.029Z,987.27
2018-08-30T08:46:50.219Z,987.22
2018-08-30T08:47:50.477Z,987.24
2018-08-30T08:48:50.605Z,987.26
2018-08-30T08:49:50.795Z,987.26
2018-08-30T08:50:50.985Z,987.22
2018-08-30T08:51:51.180Z,987.28
2018-08-30T08:52:51.367Z,987.30
2018-08-30T08:53:51.648Z,987.32
2018-08-30T08:54:51.768Z,987.31
2018-08-30T08:55:51.959Z,987.32
2018-08-30T08:56:52.152Z,987.31
2018-08-30T08:57:52.350Z,987.33
2018-08-30T08:58:52.558Z,987.35
2018-08-30T08:59:52.743Z,987.26
2018-08-30T09:00:52.949Z,987.28
2018-08-30T09:01:53.143Z,987.29
2018-08-30T09:02:53.349Z,987.33
2018-08-30T09:03:53.543Z,987.33
2018-08-30T09:04:53.723Z,987.40
2018-08-30T09:05:53.918Z,987.43
2018-08-30T09:06:54.166Z,987.40
2018-08-30T09:07:54.350Z,987.37
2018-08-30T09:08:54.492Z,987.39
2018-08-30T09:09:54.689Z,987.38
2018-08-30T09:10:54.881Z,987.37
2018-08-30T09:11:55.074Z,987.40
2018-08-30T09:12:55.266Z,987.43
2018-08-30T09:13:55.459Z,987.42
2018-08-30T09:14:55.651Z,987.40
2018-08-30T09:15:55.847Z,987.44
2018-08-30T09:16:56.037Z,987.46
2018-08-30T09:17:56.237Z,987.45
2018-08-30T09:18:56.429Z,987.45
2018-08-30T09:19:56.620Z,987.45
2018-08-30T09:20:56.814Z,987.48
2018-08-30T09:21:57.007Z,987.50
2018-08-30T09:22:57.260Z,987.43
2018-08-30T09:23:57.398Z,987.45
2018-08-30T09:24:57.591Z,987.46
2018-08-30T09:25:57.799Z,987.46
2018-08-30T09:26:58.087Z,987.47
2018-08-30T09:27:58.175Z,987.47
2018-08-30T09:28:58.374Z,987.50
2018-08-30T09:29:58.571Z,987.40
2018-08-30T09:30:58.790Z,987.51
2018-08-30T09:31:58.950Z,987.52
2018-08-30T09:32:59.150Z,987.49
2018-08-30T09:33:59.397Z,987.52
2018-08-30T09:34:59.538Z,987.54
2018-08-30T09:35:59.733Z,987.53
2018-08-30T09:36:59.924Z,987.56
2018-08-30T09:38:00.120Z,987.58
2018-08-30T09:39:00.385Z,987.58
2018-08-30T09:40:00.509Z,987.63
2018-08-30T09:41:00.723Z,987.58
2018-08-30T09:42:00.915Z,987.60
2018-08-30T09:43:01.118Z,987.58
2018-08-30T09:44:01.313Z,987.60
2018-08-30T09:45:01.518Z,987.55
2018-08-30T09:46:01.708Z,987.57
2018-08-30T09:47:01.902Z,987.59
2018-08-30T09:48:02.094Z,987.54
2018-08-30T09:49:02.286Z,987.59
2018-08-30T09:50:02.484Z,987.62
2018-08-30T09:51:02.720Z,987.60
2018-08-30T09:52:02.870Z,987.60
2018-08-30T09:53:03.094Z,987.64
2018-08-30T09:54:03.253Z,987.64
2018-08-30T09:55:03.481Z,987.63
2018-08-30T09:56:03.633Z,987.62
2018-08-30T09:57:03.919Z,987.64
2018-08-30T09:58:04.014Z,987.66
2018-08-30T09:59:04.211Z,987.67
2018-08-30T10:00:04.406Z,987.79
2018-08-30T10:01:04.599Z,987.74
2018-08-30T10:02:04.786Z,987.73
2018-08-30T10:03:04.985Z,987.71
2018-08-30T10:04:05.177Z,987.75
2018-08-30T10:05:05.404Z,987.74
2018-08-30T10:06:05.569Z,987.78
2018-08-30T10:07:05.760Z,987.74
2018-08-30T10:08:05.952Z,987.74
2018-08-30T10:09:06.144Z,987.73
2018-08-30T10:10:06.354Z,987.67
2018-08-30T10:11:06.550Z,987.71
2018-08-30T10:12:06.745Z,987.73
2018-08-30T10:13:06.942Z,987.68
2018-08-30T10:14:07.204Z,987.70
2018-08-30T10:15:07.377Z,987.72
2018-08-30T10:16:07.568Z,987.71
2018-08-30T10:17:07.761Z,987.71
2018-08-30T10:18:07.958Z,987.72
2018-08-30T10:19:08.146Z,987.73
2018-08-30T10:20:08.339Z,987.71
2018-08-30T10:21:08.535Z,987.76
2018-08-30T10:22:08.726Z,987.73
2018-08-30T10:23:08.946Z,987.71
2018-08-30T10:24:09.134Z,987.75
2018-08-30T10:25:09.326Z,987.72
2018-08-30T10:26:09.521Z,987.75
2018-08-30T10:27:09.718Z,987.74
2018-08-30T10:28:09.914Z,987.76
2018-08-30T10:29:10.109Z,987.77
2018-08-30T10:30:10.299Z,987.79
2018-08-30T10:31:10.491Z,987.70
2018-08-30T10:32:10.686Z,987.71
2018-08-30T10:33:10.880Z,987.84
2018-08-30T10:34:11.075Z,987.78
2018-08-30T10:35:11.266Z,987.81
2018-08-30T10:36:11.470Z,987.76
2018-08-30T10:37:11.660Z,987.82
2018-08-30T10:38:11.859Z,987.81
2018-08-30T10:39:12.047Z,987.81
2018-08-30T10:40:12.240Z,987.84
2018-08-30T10:41:12.429Z,987.84
2018-08-30T10:42:12.620Z,987.84
2018-08-30T10:43:12.815Z,987.87
2018-08-30T10:44:13.012Z,987.87
2018-08-30T10:45:13.207Z,987.87
2018-08-30T10:46:13.395Z,987.88
2018-08-30T10:47:13.590Z,987.89
2018-08-30T10:48:13.783Z,987.90
2018-08-30T10:49:13.986Z,987.91
2018-08-30T10:50:14.189Z,987.87
2018-08-30T10:51:14.384Z,987.93
2018-08-30T10:52:14.570Z,987.92
2018-08-30T10:53:14.759Z,987.89
2018-08-30T10:54:14.963Z,987.87
2018-08-30T10:55:15.160Z,987.86
2018-08-30T10:56:15.360Z,987.83
2018-08-30T10:57:15.543Z,987.82
2018-08-30T10:58:15.738Z,987.82
2018-08-30T10:59:15.935Z,987.83
2018-08-30T11:00:16.127Z,987.84
2018-08-30T11:01:16.323Z,987.91
2018-08-30T11:02:16.526Z,987.88
2018-08-30T11:03:16.721Z,987.89
2018-08-30T11:04:16.982Z,987.84
2018-08-30T11:05:17.124Z,987.89
2018-08-30T11:06:17.322Z,987.90
2018-08-30T11:07:17.519Z,987.90
2018-08-30T11:08:17.712Z,987.96
2018-08-30T11:09:17.930Z,987.91
2018-08-30T11:10:18.103Z,987.91
2018-08-30T11:11:18.299Z,987.93
2018-08-30T11:12:18.490Z,987.90
2018-08-30T11:13:18.732Z,987.94
2018-08-30T11:14:18.886Z,987.96
2018-08-30T11:15:19.072Z,987.93
2018-08-30T11:16:19.262Z,987.92
2018-08-30T11:17:19.454Z,987.90
2018-08-30T11:18:19.644Z,987.97
2018-08-30T11:19:19.870Z,987.96
2018-08-30T11:20:20.030Z,987.94
2018-08-30T11:21:20.224Z,987.98
2018-08-30T11:22:20.428Z,987.93
2018-08-30T11:23:20.615Z,987.93
2018-08-30T11:24:20.813Z,987.95
2018-08-30T11:25:21.001Z,987.95
2018-08-30T11:26:21.200Z,987.97
2018-08-30T11:27:21.396Z,987.97
2018-08-30T11:28:21.596Z,987.99
2018-08-30T11:29:21.792Z,988.02
2018-08-30T11:30:21.983Z,988.04
2018-08-30T11:31:22.175Z,988.08
2018-08-30T11:32:22.378Z,988.11
2018-08-30T11:33:22.583Z,988.16
2018-08-30T11:34:22.775Z,988.16
2018-08-30T11:35:23.017Z,988.15
2018-08-30T11:36:23.218Z,988.17
2018-08-30T11:37:23.407Z,988.13
2018-08-30T11:38:23.600Z,988.11
2018-08-30T11:39:23.789Z,988.14
2018-08-30T11:40:23.988Z,988.14
2018-08-30T11:41:24.249Z,988.16
2018-08-30T11:42:24.388Z,988.14
2018-08-30T11:43:24.630Z,988.15
2018-08-30T11:44:24.763Z,988.19
2018-08-30T11:45:24.964Z,988.20
2018-08-30T11:46:25.159Z,988.21
2018-08-30T11:47:25.404Z,988.17
2018-08-30T11:48:25.479Z,988.19
2018-08-30T11:49:25.668Z,988.20
2018-08-30T11:50:25.864Z,988.21
2018-08-30T11:51:26.061Z,988.23
2018-08-30T11:52:26.320Z,988.26
2018-08-30T11:53:26.451Z,988.25
2018-08-30T11:54:26.645Z,988.30
2018-08-30T11:55:26.843Z,988.30
2018-08-30T11:56:27.040Z,988.31
2018-08-30T11:57:27.233Z,988.33
2018-08-30T11:58:27.424Z,988.29
2018-08-30T11:59:27.615Z,988.33
2018-08-30T12:00:27.816Z,988.32
2018-08-30T12:01:28.001Z,988.36
2018-08-30T12:02:28.200Z,988.36
2018-08-30T12:03:28.394Z,988.36
2018-08-30T12:04:28.593Z,988.40
2018-08-30T12:05:28.787Z,988.40
2018-08-30T12:06:28.985Z,988.37
2018-08-30T12:07:29.174Z,988.36
2018-08-30T12:08:29.397Z,988.39
2018-08-30T12:09:29.559Z,988.38
2018-08-30T12:10:29.834Z,988.39
2018-08-30T12:11:30.006Z,988.44
2018-08-30T12:12:30.147Z,988.47
2018-08-30T12:13:30.340Z,988.45
2018-08-30T12:14:30.537Z,988.45
2018-08-30T12:15:30.729Z,988.43
2018-08-30T12:16:30.926Z,988.41
2018-08-30T12:17:31.122Z,988.38
2018-08-30T12:18:31.311Z,988.38
2018-08-30T12:19:31.514Z,988.41
2018-08-30T12:20:31.761Z,988.42
2018-08-30T12:21:31.902Z,988.37
2018-08-30T12:22:32.101Z,988.43
2018-08-30T12:23:32.292Z,988.41
2018-08-30T12:24:32.490Z,988.41
2018-08-30T12:25:32.685Z,988.42
2018-08-30T12:26:32.886Z,988.44
2018-08-30T12:27:33.073Z,988.43
2018-08-30T12:28:33.315Z,988.46
2018-08-30T12:29:33.500Z,988.46
2018-08-30T12:30:33.671Z,988.44